Airfield :
LOGIN :

Register | Disclaimer

   EN    FR    IT 

 










Legend :    VFR   Marginal VFR   IFR   Intensive IFR   Very Intensive IFR
Visi :
Ceiling :
>= 8 km
>= 3000ft
5 to 8 km
1000 to 3000 ft
1500m to 5 km
500 to 1000 ft
800 to 1500m
200 to 500 ft
< 800m
< 200 ft
Symbols :   Thunderstorms  Fog  Heavy snow  Heavy precipitations  Wind > 20 kt
SIGMETs :     Misc.  Thunderstorms  Icing  Turbulence  Mountain Waves  Volcanic Ashes







- Airport Elevation : 37 ft
- IATA code : OLB


LIEO - Olbia Costa Smeralda

CURRENT METAR :
  • 171350Z 06008KT 030V090 CAVOK 15/08 Q1028

EXPIRED METARs :
  • 171320Z 05009KT CAVOK 15/08 Q1028
  • 171250Z 05008KT 020V090 CAVOK 16/08 Q1028
  • 171220Z 05007KT 010V100 CAVOK 16/07 Q1029
  • 171150Z 08004KT 360V130 CAVOK 16/06 Q1029
  • 171120Z VRB03KT CAVOK 16/05 Q1030

TAF TAF LIEO
Valid from the 17 at 12:00 until the 18 at 12:00 UTC


171100Z 1712/1812 06010KT CAVOK
BECMG 1716/1718 VRB04KT
No reported NOTAMs for that airfield.



MET'MAP, your aeronautical weather chart ! - Copyright ORBIFLY December 2007 - Disclaimer

ORBIFLY MET'MAP TEAM :

Programming & Development : Alexandra Zaïnal
Concept & Development : Baudouin d'Aumeries
Co-Development & Prog : Marc-Olivier Méhu
Technical & hardware support : Manuel Goepfert

Contact : metmap@orbifly.com




SOURCES & CREDITS :

   NOAA